Time;durP1;ratioP1;P1;durP2;ratioP2;P2;SDS_P1;SDS_P2;PMS_P1;PMS_P2;Temp;Humidity;BMP_temperature;BMP_pressure;BME280_temperature;BME280_humidity;BME280_pressure;Samples;Min_cycle;Max_cycle;Signal;HPM_P1;HPM_P2
2023/10/05 00:01:31;;;;;;;11.20;4.70;;;17.10;87.80;;;;;;5025217;28;20473;-52
2023/10/05 00:03:58;;;;;;;11.85;4.70;;;17.10;87.80;;;;;;5025056;28;20077;-52
2023/10/05 00:06:24;;;;;;;12.73;4.45;;;17.10;87.90;;;;;;5025270;28;20030;-53
2023/10/05 00:08:52;;;;;;;9.55;4.05;;;17.10;88.00;;;;;;5026291;28;20501;-52
2023/10/05 00:11:29;;;;;;;8.23;4.28;;;17.10;88.00;;;;;;5024980;28;20032;-53
2023/10/05 00:14:04;;;;;;;7.53;4.78;;;17.10;88.00;;;;;;5009055;28;20021;-52
2023/10/05 00:16:36;;;;;;;13.68;5.20;;;17.00;88.10;;;;;;5026287;28;20018;-52
2023/10/05 00:19:06;;;;;;;9.55;4.55;;;17.00;88.20;;;;;;5025085;28;20088;-53
2023/10/05 00:21:35;;;;;;;12.02;4.70;;;17.00;88.10;;;;;;5025137;28;20026;-52
2023/10/05 00:24:06;;;;;;;9.15;4.50;;;17.00;88.20;;;;;;5026136;28;20112;-52
2023/10/05 00:26:36;;;;;;;8.93;4.22;;;17.00;88.20;;;;;;5026056;28;20032;-53
2023/10/05 00:29:40;;;;;;;5.57;4.32;;;16.90;88.10;;;;;;5041559;28;20030;-53
2023/10/05 00:31:59;;;;;;;13.10;4.90;;;16.90;88.10;;;;;;5036973;28;20093;-52
2023/10/05 00:34:27;;;;;;;5.68;4.20;;;17.00;88.20;;;;;;5024901;28;20038;-52
2023/10/05 00:36:57;;;;;;;12.75;4.55;;;16.90;88.20;;;;;;5024951;28;20037;-52
2023/10/05 00:39:23;;;;;;;9.00;4.00;;;16.90;88.20;;;;;;5041130;28;20034;-52
2023/10/05 00:41:55;;;;;;;8.13;4.63;;;16.90;88.30;;;;;;5026091;28;20022;-52
2023/10/05 00:44:21;;;;;;;6.32;4.45;;;16.90;88.30;;;;;;5024990;28;20030;-52
2023/10/05 00:46:50;;;;;;;8.23;4.28;;;16.90;88.40;;;;;;5024704;28;20048;-52
2023/10/05 00:49:27;;;;;;;9.90;4.60;;;16.80;88.40;;;;;;5024705;28;20057;-53
2023/10/05 00:52:07;;;;;;;7.40;4.47;;;16.80;88.40;;;;;;5040429;28;20033;-53
2023/10/05 00:54:34;;;;;;;8.68;4.43;;;16.60;88.40;;;;;;5026059;28;20038;-53
2023/10/05 00:57:06;;;;;;;8.50;5.00;;;16.80;88.50;;;;;;5025712;28;20026;-52
2023/10/05 00:59:31;;;;;;;9.13;5.00;;;16.80;88.40;;;;;;5024712;28;20061;-52
2023/10/05 01:02:05;;;;;;;8.40;4.85;;;16.80;88.40;;;;;;5024707;28;20034;-52
2023/10/05 01:07:18;;;;;;;6.13;4.07;;;16.80;89.20;;;;;;5026045;28;20052;-53
2023/10/05 01:15:05;;;;;;;7.55;3.88;;;16.70;88.70;;;;;;5024855;28;20036;-53
2023/10/05 01:17:31;;;;;;;8.52;4.40;;;16.70;88.70;;;;;;5024668;28;20030;-52
2023/10/05 01:20:06;;;;;;;11.90;4.05;;;16.70;88.80;;;;;;5025786;28;20026;-52
2023/10/05 01:22:38;;;;;;;8.43;4.60;;;16.70;88.90;;;;;;5025793;28;20026;-53
2023/10/05 01:25:04;;;;;;;9.80;4.68;;;16.70;88.90;;;;;;5025273;28;20030;-52
2023/10/05 01:27:30;;;;;;;7.70;4.20;;;16.70;88.90;;;;;;5027635;28;20030;-52
2023/10/05 01:29:56;;;;;;;6.57;4.28;;;16.70;88.90;;;;;;5027998;28;20410;-52
2023/10/05 01:32:22;;;;;;;6.28;4.18;;;16.70;88.90;;;;;;5027646;28;20022;-52
2023/10/05 01:34:51;;;;;;;5.90;3.95;;;16.70;89.00;;;;;;5029248;28;20033;-53
2023/10/05 01:37:26;;;;;;;7.93;4.10;;;16.70;89.00;;;;;;5027806;28;20018;-52
2023/10/05 01:39:52;;;;;;;5.93;4.10;;;16.60;89.00;;;;;;5029361;28;20445;-53
2023/10/05 01:42:18;;;;;;;6.60;3.72;;;16.60;89.10;;;;;;5027572;28;20025;-52
2023/10/05 01:44:49;;;;;;;9.77;3.80;;;16.60;89.10;;;;;;5028974;28;20090;-52
2023/10/05 01:47:16;;;;;;;6.35;3.90;;;16.60;89.20;;;;;;5043528;28;20018;-52
2023/10/05 01:49:42;;;;;;;8.23;4.10;;;16.60;89.30;;;;;;5028982;28;20041;-52
2023/10/05 01:52:09;;;;;;;5.18;4.07;;;16.60;89.20;;;;;;5027698;28;20023;-52
2023/10/05 01:54:37;;;;;;;7.45;3.83;;;16.50;89.30;;;;;;5011284;28;20085;-53
2023/10/05 01:57:08;;;;;;;5.18;3.50;;;16.50;89.30;;;;;;5027604;28;20029;-52
2023/10/05 01:59:41;;;;;;;5.72;3.75;;;16.50;89.30;;;;;;5027417;28;20030;-52
2023/10/05 02:02:10;;;;;;;6.25;3.80;;;16.50;89.40;;;;;;5043728;28;20025;-52
2023/10/05 02:04:40;;;;;;;7.55;3.97;;;16.50;89.40;;;;;;5027388;28;20088;-52
2023/10/05 02:07:05;;;;;;;7.65;3.63;;;16.50;89.40;;;;;;5027569;28;20034;-52
2023/10/05 02:09:31;;;;;;;7.05;3.60;;;16.50;89.40;;;;;;5027019;28;20053;-53
2023/10/05 02:12:01;;;;;;;5.30;3.47;;;16.50;89.50;;;;;;5027478;28;20053;-52
2023/10/05 02:14:27;;;;;;;5.63;3.53;;;16.50;89.50;;;;;;5028081;28;20504;-53
2023/10/05 02:16:52;;;;;;;5.00;3.67;;;16.40;89.50;;;;;;5027168;28;20086;-53
2023/10/05 02:19:19;;;;;;;6.30;4.30;;;16.40;89.50;;;;;;5043436;28;20026;-52
2023/10/05 02:21:45;;;;;;;5.63;3.83;;;16.40;89.50;;;;;;5028086;28;20028;-52
2023/10/05 02:24:22;;;;;;;6.78;4.10;;;16.40;89.50;;;;;;5043457;28;20105;-52
2023/10/05 02:29:21;;;;;;;10.80;5.20;;;16.40;89.60;;;;;;5027008;28;20033;-52
2023/10/05 02:34:38;;;;;;;7.68;5.07;;;16.40;89.70;;;;;;5026862;28;20120;-52
2023/10/05 02:37:08;;;;;;;7.70;5.10;;;16.30;89.70;;;;;;5025792;28;20040;-53
2023/10/05 02:39:37;;;;;;;7.45;5.30;;;16.40;89.90;;;;;;5027523;28;20022;-53
2023/10/05 02:42:11;;;;;;;6.15;5.22;;;16.30;89.90;;;;;;5027594;28;20022;-52
2023/10/05 02:44:38;;;;;;;11.80;5.37;;;16.30;89.80;;;;;;5027266;28;20045;-53
2023/10/05 02:47:12;;;;;;;6.25;4.88;;;16.30;89.80;;;;;;5027921;28;20049;-52
2023/10/05 02:49:43;;;;;;;5.53;4.65;;;16.30;89.90;;;;;;5026569;28;20037;-52
2023/10/05 02:52:13;;;;;;;7.25;4.55;;;16.30;90.00;;;;;;5042455;28;20081;-52
2023/10/05 02:54:45;;;;;;;7.43;4.45;;;16.30;90.00;;;;;;5027454;28;20037;-52
2023/10/05 02:57:11;;;;;;;6.70;5.45;;;16.30;90.00;;;;;;5027639;28;20112;-52
2023/10/05 02:59:36;;;;;;;7.03;5.47;;;16.30;90.00;;;;;;5042687;28;20104;-52
2023/10/05 03:02:07;;;;;;;7.20;5.40;;;16.20;90.00;;;;;;5027512;28;20026;-53
2023/10/05 03:04:45;;;;;;;8.75;5.55;;;16.20;90.00;;;;;;5026149;28;20045;-52
2023/10/05 03:07:17;;;;;;;7.05;5.53;;;16.20;90.00;;;;;;5041131;28;20026;-52
2023/10/05 03:09:47;;;;;;;6.47;5.15;;;16.20;90.00;;;;;;5026161;28;20034;-52
2023/10/05 03:12:12;;;;;;;7.82;5.18;;;16.20;90.00;;;;;;5009678;28;20090;-52
2023/10/05 03:14:44;;;;;;;7.38;5.22;;;16.20;90.00;;;;;;5025805;28;20112;-52
2023/10/05 03:17:16;;;;;;;6.93;5.00;;;16.20;90.10;;;;;;5009956;28;20056;-52
2023/10/05 03:19:41;;;;;;;6.40;5.00;;;16.10;90.10;;;;;;5025945;28;20520;-52
2023/10/05 03:22:12;;;;;;;8.60;4.80;;;16.10;90.10;;;;;;5027278;28;20026;-53
2023/10/05 03:24:38;;;;;;;8.68;4.55;;;16.10;90.20;;;;;;5026945;28;20030;-52
2023/10/05 03:27:03;;;;;;;12.05;4.78;;;16.10;90.20;;;;;;5025714;28;20038;-53
2023/10/05 03:29:35;;;;;;;6.20;4.57;;;16.10;90.20;;;;;;5026820;28;20061;-52
2023/10/05 03:34:33;;;;;;;10.13;4.95;;;16.00;90.20;;;;;;5025513;28;20038;-52
2023/10/05 03:37:04;;;;;;;8.15;4.63;;;16.10;90.20;;;;;;5041741;28;20029;-53
2023/10/05 03:39:33;;;;;;;10.95;4.88;;;16.00;90.30;;;;;;5026685;28;20029;-52
2023/10/05 03:41:59;;;;;;;9.45;4.97;;;16.00;90.30;;;;;;5025532;28;20022;-52
2023/10/05 03:44:26;;;;;;;9.50;4.80;;;16.00;90.60;;;;;;5026802;28;20045;-53
2023/10/05 03:46:52;;;;;;;7.50;5.32;;;16.00;90.30;;;;;;5041917;28;20471;-52
2023/10/05 03:49:21;;;;;;;9.90;5.07;;;16.00;90.30;;;;;;5008582;28;20060;-53
2023/10/05 03:51:50;;;;;;;9.13;4.93;;;16.00;90.30;;;;;;5026558;28;20075;-52
2023/10/05 03:54:19;;;;;;;10.43;5.55;;;15.90;90.60;;;;;;5026492;28;20041;-52
2023/10/05 03:56:46;;;;;;;8.25;5.00;;;15.90;90.60;;;;;;5042038;28;20014;-52
2023/10/05 03:59:12;;;;;;;8.07;5.40;;;15.90;90.30;;;;;;5026429;28;20040;-52
2023/10/05 04:01:37;;;;;;;7.35;4.80;;;15.90;90.30;;;;;;5026636;28;20029;-52
2023/10/05 04:04:08;;;;;;;10.10;4.97;;;15.90;90.30;;;;;;5026444;28;20091;-52
2023/10/05 04:06:36;;;;;;;9.50;4.70;;;15.90;90.30;;;;;;5026725;28;20033;-52
2023/10/05 04:09:03;;;;;;;7.45;5.13;;;15.90;90.30;;;;;;5025278;28;20044;-52
2023/10/05 04:11:28;;;;;;;9.55;5.22;;;15.90;90.30;;;;;;5025148;28;20026;-52
2023/10/05 04:13:54;;;;;;;11.68;4.82;;;15.90;90.30;;;;;;5008480;28;20097;-52
2023/10/05 04:16:22;;;;;;;8.38;3.83;;;15.90;90.30;;;;;;5041783;28;20026;-52
2023/10/05 04:18:51;;;;;;;6.30;4.63;;;15.80;90.30;;;;;;5025122;28;20042;-53
2023/10/05 04:21:18;;;;;;;8.32;5.05;;;15.80;90.40;;;;;;5009179;28;20022;-52
2023/10/05 04:23:49;;;;;;;7.40;4.30;;;15.80;90.40;;;;;;5025051;28;20025;-52
2023/10/05 04:26:18;;;;;;;6.05;4.00;;;15.80;90.40;;;;;;5025120;28;20030;-53
2023/10/05 04:28:52;;;;;;;11.90;4.57;;;15.80;90.40;;;;;;5025155;28;20054;-52
2023/10/05 04:31:22;;;;;;;12.27;4.93;;;15.80;90.40;;;;;;5025111;28;20045;-52
2023/10/05 04:33:49;;;;;;;11.93;4.93;;;15.80;90.40;;;;;;5024510;28;20029;-52
2023/10/05 04:36:16;;;;;;;24.63;5.43;;;15.70;90.40;;;;;;5025065;28;20039;-52
2023/10/05 04:38:43;;;;;;;35.38;6.93;;;15.70;90.40;;;;;;5025077;28;20030;-53
2023/10/05 04:41:12;;;;;;;41.15;8.27;;;15.70;90.50;;;;;;5024919;28;20022;-52
2023/10/05 04:43:43;;;;;;;34.70;7.00;;;15.70;90.50;;;;;;5026101;28;20034;-52
2023/10/05 04:46:09;;;;;;;41.45;7.93;;;15.70;90.50;;;;;;5024876;28;20030;-52
2023/10/05 04:48:38;;;;;;;43.80;7.72;;;15.70;90.50;;;;;;5041061;28;20041;-52
2023/10/05 04:51:05;;;;;;;29.42;6.97;;;15.70;90.50;;;;;;5041028;28;20042;-53
2023/10/05 04:53:32;;;;;;;73.13;11.90;;;15.70;90.50;;;;;;5041009;28;20056;-52
2023/10/05 04:56:00;;;;;;;50.88;9.38;;;15.60;90.50;;;;;;5024910;28;20026;-52
2023/10/05 04:58:53;;;;;;;46.00;7.53;;;15.60;90.60;;;;;;5024810;28;20049;-52
2023/10/05 05:01:35;;;;;;;36.38;7.15;;;15.60;90.50;;;;;;5027349;28;20069;-52
2023/10/05 05:04:27;;;;;;;27.35;7.18;;;15.60;90.50;;;;;;5029752;28;20034;-53
2023/10/05 05:06:55;;;;;;;32.08;7.18;;;15.60;90.60;;;;;;5015463;28;20033;-52
2023/10/05 05:09:21;;;;;;;37.92;6.80;;;15.60;90.50;;;;;;5028165;28;20065;-53
2023/10/05 05:11:49;;;;;;;25.83;6.30;;;15.60;90.60;;;;;;5011945;28;20061;-52
2023/10/05 05:14:15;;;;;;;28.77;6.88;;;15.60;90.60;;;;;;5029274;28;20034;-52
2023/10/05 05:16:43;;;;;;;28.88;7.38;;;15.50;90.60;;;;;;5028252;28;20028;-52
2023/10/05 05:19:09;;;;;;;26.45;5.90;;;15.60;90.70;;;;;;5028156;28;20033;-53
2023/10/05 05:21:34;;;;;;;28.33;5.97;;;15.50;90.70;;;;;;5029249;28;20078;-52
2023/10/05 05:24:00;;;;;;;31.23;6.95;;;15.50;90.70;;;;;;5029240;28;20494;-53
2023/10/05 05:26:26;;;;;;;25.50;6.63;;;15.40;90.70;;;;;;5044576;28;20044;-52
2023/10/05 05:28:53;;;;;;;29.73;6.68;;;15.50;90.80;;;;;;5028200;28;20593;-52
2023/10/05 05:31:18;;;;;;;28.25;6.68;;;15.40;90.80;;;;;;5044325;28;20041;-52
2023/10/05 05:33:44;;;;;;;29.73;6.80;;;15.40;90.80;;;;;;5027803;28;20036;-52
2023/10/05 05:36:12;;;;;;;36.28;7.03;;;15.40;91.10;;;;;;5027796;28;20042;-52
2023/10/05 05:38:41;;;;;;;46.85;8.55;;;15.40;90.80;;;;;;5027667;28;20030;-53
2023/10/05 05:41:12;;;;;;;49.13;9.00;;;15.40;90.80;;;;;;5027861;28;20022;-52
2023/10/05 05:43:39;;;;;;;65.63;10.73;;;15.40;90.90;;;;;;5028827;28;20026;-52
2023/10/05 05:46:11;;;;;;;79.28;12.40;;;15.40;90.90;;;;;;5027532;28;20054;-52
2023/10/05 05:48:37;;;;;;;66.00;11.77;;;15.40;91.00;;;;;;5028607;28;20361;-52
2023/10/05 05:51:10;;;;;;;68.57;12.60;;;15.30;91.00;;;;;;5009540;28;20085;-53
2023/10/05 05:53:37;;;;;;;98.75;15.07;;;15.30;91.00;;;;;;5025662;28;20033;-52
2023/10/05 05:56:03;;;;;;;63.65;11.50;;;15.30;91.00;;;;;;5009012;28;20446;-52
2023/10/05 05:58:29;;;;;;;66.55;10.30;;;15.30;91.00;;;;;;5025376;28;20390;-52
2023/10/05 06:00:57;;;;;;;60.20;10.88;;;15.30;91.10;;;;;;5025362;28;20492;-53
2023/10/05 06:03:24;;;;;;;51.50;11.15;;;15.30;91.10;;;;;;5026554;28;20496;-52
2023/10/05 06:05:51;;;;;;;46.55;9.98;;;15.30;91.20;;;;;;5025447;28;20065;-53
2023/10/05 06:08:16;;;;;;;38.95;8.43;;;15.20;91.20;;;;;;5024336;28;20033;-52
2023/10/05 06:10:43;;;;;;;51.30;9.27;;;15.20;91.30;;;;;;5040840;28;20038;-52
2023/10/05 06:13:11;;;;;;;38.05;8.30;;;15.30;91.40;;;;;;5025704;28;20046;-52
2023/10/05 06:15:38;;;;;;;45.53;9.30;;;15.20;91.40;;;;;;5024891;28;20049;-52
2023/10/05 06:18:03;;;;;;;31.83;7.80;;;15.10;91.50;;;;;;5024276;28;20030;-52
2023/10/05 06:20:29;;;;;;;42.13;8.57;;;15.10;91.50;;;;;;5008237;28;20072;-52
2023/10/05 06:22:55;;;;;;;52.45;9.95;;;15.10;91.80;;;;;;5026642;28;20045;-53
2023/10/05 06:25:21;;;;;;;33.22;7.85;;;15.10;91.60;;;;;;5025741;28;20029;-53
2023/10/05 06:27:47;;;;;;;34.65;8.18;;;15.10;91.70;;;;;;5042092;28;20056;-52
2023/10/05 06:30:16;;;;;;;36.42;8.93;;;15.10;92.00;;;;;;5026096;28;20030;-53
2023/10/05 06:32:44;;;;;;;33.58;8.40;;;15.10;91.70;;;;;;5024957;28;20052;-52
2023/10/05 06:35:13;;;;;;;49.45;9.10;;;15.10;91.80;;;;;;5041087;28;20052;-52
2023/10/05 06:37:42;;;;;;;43.30;8.77;;;15.10;91.80;;;;;;5042618;28;20466;-52
2023/10/05 06:40:14;;;;;;;35.85;8.38;;;15.10;91.80;;;;;;5027308;28;20447;-52
2023/10/05 06:42:42;;;;;;;42.40;8.48;;;15.00;91.90;;;;;;5038179;28;20018;-52
2023/10/05 06:45:13;;;;;;;49.38;8.90;;;15.10;91.90;;;;;;5008922;28;20062;-52
2023/10/05 06:47:39;;;;;;;36.97;8.48;;;15.00;92.30;;;;;;5055501;28;20448;-52
2023/10/05 06:50:08;;;;;;;37.15;9.23;;;15.00;92.00;;;;;;5036050;28;20026;-52
2023/10/05 06:52:46;;;;;;;39.28;8.85;;;15.00;92.10;;;;;;5025783;28;20065;-52
2023/10/05 06:55:17;;;;;;;52.40;9.07;;;15.00;92.20;;;;;;5025184;28;20069;-52
2023/10/05 06:57:43;;;;;;;37.80;9.13;;;15.00;92.20;;;;;;5018888;28;20025;-52
2023/10/05 07:00:16;;;;;;;35.92;8.32;;;15.00;92.20;;;;;;5025389;28;20033;-53
2023/10/05 07:02:58;;;;;;;35.72;8.23;;;15.00;92.30;;;;;;5020840;28;20208;-52
2023/10/05 07:05:24;;;;;;;39.88;8.82;;;15.00;92.40;;;;;;5008221;28;20027;-53
2023/10/05 07:07:49;;;;;;;43.20;8.70;;;15.00;92.40;;;;;;5025850;28;20060;-52
2023/10/05 07:10:15;;;;;;;43.05;8.27;;;15.00;92.50;;;;;;5025131;28;20025;-52
2023/10/05 07:12:46;;;;;;;37.05;7.70;;;15.00;92.50;;;;;;5024962;28;20036;-52
2023/10/05 07:15:15;;;;;;;28.73;8.07;;;15.00;92.50;;;;;;5024304;28;20026;-53
2023/10/05 07:17:41;;;;;;;38.45;8.68;;;15.00;92.50;;;;;;5025622;28;20367;-53
2023/10/05 07:20:11;;;;;;;46.85;9.85;;;15.00;92.50;;;;;;5018267;28;20029;-52
2023/10/05 07:22:38;;;;;;;34.85;8.75;;;15.00;92.50;;;;;;5035235;28;20030;-53
2023/10/05 07:25:05;;;;;;;41.90;8.93;;;15.00;92.50;;;;;;5023111;28;20034;-52
2023/10/05 07:27:30;;;;;;;45.85;9.40;;;15.10;92.60;;;;;;5026824;28;20033;-52
2023/10/05 07:29:56;;;;;;;35.10;8.82;;;15.00;92.60;;;;;;5019817;28;20029;-52
2023/10/05 07:32:21;;;;;;;35.95;8.55;;;15.10;92.60;;;;;;5032165;28;20056;-52
2023/10/05 07:34:47;;;;;;;38.08;9.60;;;15.10;92.60;;;;;;5027492;28;20022;-52
2023/10/05 07:37:13;;;;;;;53.45;10.68;;;15.00;92.90;;;;;;5034944;28;20029;-52
2023/10/05 07:39:41;;;;;;;49.33;10.00;;;15.10;92.60;;;;;;5035624;28;20056;-53
2023/10/05 07:42:10;;;;;;;52.20;9.55;;;15.10;92.70;;;;;;5031356;28;20030;-52
2023/10/05 07:44:37;;;;;;;36.13;8.85;;;15.10;92.70;;;;;;5011936;28;20052;-53
2023/10/05 07:47:06;;;;;;;60.58;10.98;;;15.10;92.80;;;;;;5017649;28;20034;-53
2023/10/05 07:49:34;;;;;;;50.10;10.45;;;15.10;92.80;;;;;;5054620;28;20026;-52
2023/10/05 07:52:03;;;;;;;34.83;9.02;;;15.10;92.80;;;;;;5021925;28;20030;-52
2023/10/05 07:54:31;;;;;;;38.90;9.23;;;15.10;92.90;;;;;;5019075;28;20042;-52
2023/10/05 07:56:57;;;;;;;53.78;9.90;;;15.20;92.90;;;;;;5019971;28;20037;-52
2023/10/05 07:59:23;;;;;;;42.17;9.68;;;15.10;92.90;;;;;;5020134;28;20026;-52
2023/10/05 08:01:52;;;;;;;41.38;9.25;;;15.20;92.90;;;;;;5003327;28;20402;-53
2023/10/05 08:04:18;;;;;;;49.35;9.73;;;15.20;92.90;;;;;;5013525;28;20060;-52
2023/10/05 08:06:45;;;;;;;35.15;9.30;;;15.20;93.00;;;;;;5016871;28;20045;-53
2023/10/05 08:09:15;;;;;;;43.63;9.25;;;15.20;93.00;;;;;;5020302;28;20079;-52
2023/10/05 08:11:44;;;;;;;44.80;9.07;;;15.20;92.90;;;;;;5018295;28;20037;-52
2023/10/05 08:14:11;;;;;;;36.45;8.95;;;15.20;92.80;;;;;;5048100;28;20034;-52
2023/10/05 08:16:37;;;;;;;45.67;9.43;;;15.30;92.70;;;;;;5035567;28;20023;-51
2023/10/05 08:19:03;;;;;;;29.23;8.65;;;15.30;92.70;;;;;;5037176;28;20018;-52
2023/10/05 08:21:28;;;;;;;51.42;9.85;;;15.30;92.60;;;;;;5023093;28;20041;-53
2023/10/05 08:23:54;;;;;;;44.67;9.32;;;15.40;92.60;;;;;;5024744;28;20030;-52
2023/10/05 08:26:20;;;;;;;38.20;8.95;;;15.40;92.60;;;;;;5042082;28;20026;-52
2023/10/05 08:28:50;;;;;;;44.45;10.07;;;15.50;92.60;;;;;;5025124;28;20045;-53
2023/10/05 08:31:18;;;;;;;51.72;9.75;;;15.50;92.50;;;;;;5009859;28;20142;-52
2023/10/05 08:33:44;;;;;;;64.18;11.32;;;15.60;92.50;;;;;;5018369;28;20037;-52
2023/10/05 08:36:11;;;;;;;98.88;14.60;;;15.60;92.40;;;;;;5028351;28;20049;-52
2023/10/05 08:38:37;;;;;;;50.97;10.73;;;15.60;92.40;;;;;;5059754;28;20033;-53
2023/10/05 08:41:11;;;;;;;67.43;11.80;;;15.70;92.40;;;;;;5040789;28;20042;-53
2023/10/05 08:43:40;;;;;;;57.03;10.93;;;15.70;92.40;;;;;;5042400;28;20501;-52
2023/10/05 08:46:12;;;;;;;65.75;11.30;;;15.80;92.50;;;;;;5044172;28;20097;-52
2023/10/05 08:48:38;;;;;;;71.13;11.32;;;15.80;92.40;;;;;;5038801;28;20030;-50
2023/10/05 08:51:12;;;;;;;59.25;11.35;;;15.80;92.40;;;;;;5040832;28;20046;-53
2023/10/05 08:53:48;;;;;;;54.78;11.45;;;15.90;92.40;;;;;;5044255;28;20117;-53
2023/10/05 08:56:15;;;;;;;45.03;9.43;;;15.90;92.30;;;;;;5027699;28;20038;-52
2023/10/05 08:58:46;;;;;;;52.88;11.27;;;15.90;92.20;;;;;;5055941;28;20026;-53
2023/10/05 09:01:30;;;;;;;59.33;11.45;;;15.90;92.10;;;;;;5048012;28;20026;-53
2023/10/05 09:06:43;;;;;;;89.28;14.25;;;16.10;92.20;;;;;;5035335;28;20034;-52
2023/10/05 09:09:13;;;;;;;115.60;16.23;;;16.10;92.20;;;;;;5016453;28;20026;-53
2023/10/05 09:11:39;;;;;;;81.22;13.32;;;16.10;92.10;;;;;;5050675;28;20304;-52
2023/10/05 09:14:18;;;;;;;75.32;13.57;;;16.20;92.20;;;;;;5027691;28;20081;-52
2023/10/05 09:16:45;;;;;;;70.10;12.80;;;16.10;92.10;;;;;;5041613;28;20034;-52
2023/10/05 09:19:17;;;;;;;96.20;14.95;;;16.20;92.10;;;;;;5020381;28;20026;-52
2023/10/05 09:24:24;;;;;;;75.05;13.65;;;16.30;92.10;;;;;;5055089;28;20109;-52
2023/10/05 09:27:12;;;;;;;52.30;10.88;;;16.30;92.00;;;;;;5027248;28;20272;-52
2023/10/05 09:29:39;;;;;;;77.10;14.20;;;16.30;92.00;;;;;;5028008;28;20037;-53
2023/10/05 09:32:11;;;;;;;93.70;14.85;;;16.40;91.90;;;;;;5028986;28;20034;-53
2023/10/05 09:34:49;;;;;;;67.53;12.00;;;16.40;92.00;;;;;;5028807;28;20042;-53
2023/10/05 09:37:16;;;;;;;64.40;12.55;;;16.50;92.00;;;;;;5043180;28;20049;-53
2023/10/05 09:39:43;;;;;;;66.25;10.18;;;16.50;91.90;;;;;;5027545;28;20041;-52
2023/10/05 09:42:27;;;;;;;55.05;10.98;;;16.60;91.90;;;;;;5010708;28;20089;-53
2023/10/05 09:44:53;;;;;;;72.70;11.95;;;16.60;91.80;;;;;;5027151;28;20033;-53
2023/10/05 09:47:32;;;;;;;87.97;14.27;;;16.70;91.80;;;;;;5026385;28;20038;-53
2023/10/05 09:50:02;;;;;;;65.97;11.60;;;16.70;91.70;;;;;;5027571;28;20037;-52
2023/10/05 09:52:38;;;;;;;66.95;11.75;;;16.80;91.70;;;;;;5028022;28;20041;-53
2023/10/05 09:55:05;;;;;;;61.40;11.88;;;16.80;91.70;;;;;;5027128;28;20030;-53
2023/10/05 09:57:35;;;;;;;59.65;11.75;;;16.80;91.60;;;;;;5014396;28;20104;-53
2023/10/05 10:00:00;;;;;;;50.90;11.63;;;16.90;91.60;;;;;;5036255;28;20042;-52
2023/10/05 10:02:33;;;;;;;46.53;10.80;;;16.90;91.60;;;;;;5026649;28;20052;-53
2023/10/05 10:05:00;;;;;;;76.50;11.60;;;16.90;91.60;;;;;;5026575;28;20033;-53
2023/10/05 10:07:26;;;;;;;52.05;11.15;;;17.00;91.70;;;;;;5026715;28;20022;-53
2023/10/05 10:09:56;;;;;;;58.53;10.63;;;17.00;91.70;;;;;;5010407;28;20041;-53
2023/10/05 10:12:33;;;;;;;50.95;10.02;;;17.00;91.70;;;;;;4997218;28;20061;-53
2023/10/05 10:14:59;;;;;;;60.92;13.07;;;17.00;91.70;;;;;;5045796;28;20037;-52
2023/10/05 10:17:32;;;;;;;57.10;11.20;;;17.10;91.70;;;;;;5045945;28;20032;-53
2023/10/05 10:20:34;;;;;;;66.80;11.77;;;17.40;91.80;;;;;;5046451;28;20185;-52
2023/10/05 10:23:14;;;;;;;57.67;11.23;;;17.20;91.80;;;;;;5021182;28;20030;-50
2023/10/05 10:25:40;;;;;;;61.53;12.02;;;17.20;91.80;;;;;;5044347;28;20116;-51
2023/10/05 10:28:43;;;;;;;75.88;13.13;;;17.20;91.90;;;;;;5046510;28;20038;-53
2023/10/05 10:31:16;;;;;;;60.08;12.85;;;17.20;91.90;;;;;;5017217;28;20129;-53
2023/10/05 10:33:42;;;;;;;72.07;12.10;;;17.30;91.90;;;;;;5043728;28;20036;-52
2023/10/05 10:36:18;;;;;;;99.82;14.52;;;17.40;91.90;;;;;;5046329;28;20097;-52
2023/10/05 10:38:44;;;;;;;;;;;17.40;91.90;;;;;;5047789;28;20022;-52
2023/10/05 10:41:10;;;;;;;96.30;14.73;;;17.50;91.70;;;;;;5060973;28;19914;-52
2023/10/05 10:43:37;;;;;;;97.53;16.00;;;17.60;91.50;;;;;;5026152;28;20026;-52
2023/10/05 10:46:21;;;;;;;87.05;15.63;;;17.60;91.50;;;;;;5026204;28;20101;-52
2023/10/05 10:48:53;;;;;;;81.05;13.77;;;17.60;91.50;;;;;;5025385;28;20037;-52
2023/10/05 10:51:21;;;;;;;93.28;17.17;;;17.60;91.50;;;;;;5025758;28;20093;-53
2023/10/05 10:53:46;;;;;;;76.60;13.68;;;17.70;91.60;;;;;;5025496;28;20085;-53
2023/10/05 10:56:21;;;;;;;76.47;13.52;;;17.70;91.50;;;;;;5009526;28;20026;-53
2023/10/05 10:58:56;;;;;;;58.22;12.00;;;17.70;91.50;;;;;;5023713;28;20046;-53
2023/10/05 11:01:40;;;;;;;62.80;12.68;;;17.70;91.50;;;;;;5041273;28;20037;-53
2023/10/05 11:04:23;;;;;;;51.53;10.52;;;17.80;91.50;;;;;;5039962;28;20085;-52
2023/10/05 11:06:56;;;;;;;59.53;11.70;;;17.80;91.50;;;;;;5039560;28;20033;-52
2023/10/05 11:09:30;;;;;;;58.97;11.73;;;17.80;91.40;;;;;;5027158;28;20098;-53
2023/10/05 11:12:05;;;;;;;64.28;10.93;;;17.90;91.40;;;;;;5041053;28;20084;-53
2023/10/05 11:14:32;;;;;;;46.35;9.77;;;17.90;91.50;;;;;;5040502;28;20111;-53
2023/10/05 11:17:01;;;;;;;41.40;10.55;;;18.00;91.60;;;;;;5036012;28;20041;-53
2023/10/05 11:19:38;;;;;;;41.45;10.68;;;18.00;91.50;;;;;;5024662;28;20033;-52
2023/10/05 11:22:11;;;;;;;51.28;10.05;;;18.00;91.50;;;;;;4998986;28;20444;-53
2023/10/05 11:25:00;;;;;;;43.38;9.27;;;18.10;91.40;;;;;;5028008;28;20085;-52
2023/10/05 11:27:25;;;;;;;37.00;8.85;;;18.20;91.40;;;;;;5023383;28;20045;-52
2023/10/05 11:29:55;;;;;;;47.90;9.80;;;18.20;91.30;;;;;;5025342;28;20022;-53
2023/10/05 11:32:23;;;;;;;31.13;9.45;;;18.30;91.20;;;;;;5023870;28;20041;-52
2023/10/05 11:34:55;;;;;;;49.17;10.00;;;18.30;91.00;;;;;;5021609;28;20026;-53
2023/10/05 11:37:21;;;;;;;30.77;7.85;;;18.40;90.80;;;;;;5026372;28;20068;-53
2023/10/05 11:39:49;;;;;;;31.85;8.40;;;18.40;90.80;;;;;;5044977;28;20025;-52
2023/10/05 11:42:16;;;;;;;33.30;7.95;;;18.40;90.70;;;;;;5014519;28;20052;-53
2023/10/05 11:44:44;;;;;;;26.85;6.82;;;18.50;90.70;;;;;;5042961;28;20059;-52
2023/10/05 11:47:32;;;;;;;35.72;7.82;;;18.50;90.60;;;;;;5020442;28;20038;-53
2023/10/05 11:50:08;;;;;;;28.02;6.45;;;18.50;90.40;;;;;;5039510;28;20033;-52
2023/10/05 11:52:39;;;;;;;30.60;6.28;;;18.60;90.30;;;;;;5022951;28;20030;-52
2023/10/05 11:55:11;;;;;;;30.45;6.95;;;18.60;90.10;;;;;;5047369;28;20446;-52
2023/10/05 11:57:38;;;;;;;28.67;7.45;;;18.70;90.10;;;;;;5022286;28;20057;-53
2023/10/05 12:00:05;;;;;;;30.83;7.70;;;18.70;89.80;;;;;;5023893;28;20033;-53
2023/10/05 12:02:30;;;;;;;23.00;6.55;;;18.80;89.50;;;;;;5025760;28;20051;-53
2023/10/05 12:04:56;;;;;;;30.52;7.90;;;18.80;89.30;;;;;;5031814;28;20060;-53
2023/10/05 12:07:25;;;;;;;22.55;7.40;;;18.80;89.20;;;;;;5044880;28;20030;-52
2023/10/05 12:09:50;;;;;;;27.15;7.60;;;18.90;89.00;;;;;;5045813;28;20068;-52
2023/10/05 12:12:18;;;;;;;27.40;6.47;;;18.90;89.00;;;;;;5044798;28;20029;-53
2023/10/05 12:14:44;;;;;;;28.17;7.00;;;18.90;88.80;;;;;;5045947;28;20034;-53
2023/10/05 12:17:10;;;;;;;25.45;7.05;;;19.00;89.20;;;;;;5025090;28;20030;-53
2023/10/05 12:19:35;;;;;;;34.22;7.78;;;19.00;88.50;;;;;;5024993;28;20039;-53
2023/10/05 12:22:01;;;;;;;36.92;7.05;;;19.00;88.20;;;;;;5024744;28;20431;-53
2023/10/05 12:24:27;;;;;;;37.42;7.05;;;19.10;87.90;;;;;;5008084;28;20033;-52
2023/10/05 12:26:57;;;;;;;30.20;7.15;;;19.10;87.70;;;;;;5007344;28;20045;-53
2023/10/05 12:29:23;;;;;;;44.00;7.45;;;19.20;87.50;;;;;;5044511;28;20544;-53
2023/10/05 12:31:51;;;;;;;41.95;7.65;;;19.20;87.20;;;;;;5035813;28;20045;-53
2023/10/05 12:34:18;;;;;;;50.88;8.73;;;19.20;87.00;;;;;;5057498;28;20033;-53
2023/10/05 12:36:51;;;;;;;55.42;9.07;;;19.30;86.40;;;;;;5029378;28;20437;-53
2023/10/05 12:39:17;;;;;;;56.42;10.15;;;19.30;86.40;;;;;;5039969;28;20436;-53
2023/10/05 12:41:43;;;;;;;35.55;9.18;;;19.30;84.80;;;;;;5031611;28;20081;-52
2023/10/05 12:44:13;;;;;;;64.85;9.80;;;19.30;84.80;;;;;;5027689;28;20470;-52
2023/10/05 12:46:45;;;;;;;72.35;10.38;;;19.40;84.50;;;;;;5044451;28;20053;-52
2023/10/05 12:49:15;;;;;;;71.00;11.57;;;19.40;84.20;;;;;;5044039;28;20060;-52
2023/10/05 12:51:45;;;;;;;60.15;10.60;;;19.40;83.70;;;;;;5037388;28;20053;-52
2023/10/05 12:54:28;;;;;;;69.93;11.90;;;19.40;83.40;;;;;;5025436;28;20086;-52
2023/10/05 12:56:53;;;;;;;69.18;10.27;;;19.50;83.20;;;;;;5024592;28;20101;-50
2023/10/05 12:59:19;;;;;;;67.60;9.77;;;19.50;82.90;;;;;;5024312;28;20049;-52
2023/10/05 13:01:46;;;;;;;70.18;12.00;;;19.50;82.30;;;;;;5024576;28;20028;-52
2023/10/05 13:04:12;;;;;;;73.18;11.88;;;19.50;81.90;;;;;;5025389;28;20026;-53
2023/10/05 13:06:38;;;;;;;85.43;11.63;;;19.60;81.60;;;;;;5024453;28;20061;-52
2023/10/05 13:09:15;;;;;;;64.25;10.02;;;19.60;81.10;;;;;;5023545;28;20052;-52
2023/10/05 13:11:44;;;;;;;105.15;13.65;;;19.60;80.90;;;;;;5035503;28;20057;-50